createdAt,value
2018-05-02T00:00:23.166Z,1001.29
2018-05-02T00:01:03.679Z,1001.31
2018-05-02T00:01:44.206Z,1001.34
2018-05-02T00:02:24.731Z,1001.27
2018-05-02T00:03:05.250Z,1001.29
2018-05-02T00:03:45.766Z,1001.28
2018-05-02T00:04:26.289Z,1001.3
2018-05-02T00:05:06.794Z,1001.27
2018-05-02T00:05:47.321Z,1001.28
2018-05-02T00:06:27.824Z,1001.21
2018-05-02T00:07:08.353Z,1001.24
2018-05-02T00:07:48.880Z,1001.21
2018-05-02T00:08:29.387Z,1001.2
2018-05-02T00:09:09.904Z,1001.23
2018-05-02T00:09:50.428Z,1001.23
2018-05-02T00:10:30.942Z,1001.24
2018-05-02T00:11:11.457Z,1001.21
2018-05-02T00:11:51.984Z,1001.28
2018-05-02T00:12:32.505Z,1001.26
2018-05-02T00:13:13.024Z,1001.24
2018-05-02T00:13:53.544Z,1001.22
2018-05-02T00:14:34.059Z,1001.23
2018-05-02T00:15:14.559Z,1001.25
2018-05-02T00:15:55.083Z,1001.2
2018-05-02T00:16:35.590Z,1001.24
2018-05-02T00:17:16.116Z,1001.25
2018-05-02T00:17:56.666Z,1001.2
2018-05-02T00:18:37.170Z,1001.23
2018-05-02T00:19:17.691Z,1001.22
2018-05-02T00:19:58.197Z,1001.23
2018-05-02T00:20:38.734Z,1001.21
2018-05-02T00:21:19.248Z,1001.2
2018-05-02T00:21:59.758Z,1001.24
2018-05-02T00:22:40.280Z,1001.23
2018-05-02T00:23:20.800Z,1001.26
2018-05-02T00:24:01.316Z,1001.2
2018-05-02T00:24:41.838Z,1001.22
2018-05-02T00:25:22.357Z,1001.17
2018-05-02T00:26:02.869Z,1001.18
2018-05-02T00:26:43.379Z,1001.22
2018-05-02T00:27:23.879Z,1001.18
2018-05-02T00:28:04.398Z,1001.19
2018-05-02T00:28:44.912Z,1001.21
2018-05-02T00:29:25.438Z,1001.22
2018-05-02T00:30:05.965Z,1001.23
2018-05-02T00:30:46.483Z,1001.21
2018-05-02T00:31:27.008Z,1001.21
2018-05-02T00:32:07.530Z,1001.19
2018-05-02T00:32:48.049Z,1001.16
2018-05-02T00:33:28.576Z,1001.19
2018-05-02T00:34:09.089Z,1001.18
2018-05-02T00:34:49.602Z,1001.2
2018-05-02T00:35:30.122Z,1001.22
2018-05-02T00:36:10.638Z,1001.18
2018-05-02T00:36:51.159Z,1001.14
2018-05-02T00:37:31.679Z,1001.14
2018-05-02T00:38:12.185Z,1001.18
2018-05-02T00:38:52.696Z,1001.16
2018-05-02T00:39:33.202Z,1001.2
2018-05-02T00:40:13.711Z,1001.17
2018-05-02T00:40:54.239Z,1001.25
2018-05-02T00:41:34.762Z,1001.24
2018-05-02T00:42:15.287Z,1001.26
2018-05-02T00:42:55.804Z,1001.3
2018-05-02T00:43:36.317Z,1001.31
2018-05-02T00:44:16.840Z,1001.31
2018-05-02T00:44:57.352Z,1001.28
2018-05-02T00:45:37.863Z,1001.27
2018-05-02T00:46:18.391Z,1001.3
2018-05-02T00:46:58.908Z,1001.33
2018-05-02T00:47:39.422Z,1001.3
2018-05-02T00:48:19.933Z,1001.28
2018-05-02T00:49:00.445Z,1001.28
2018-05-02T00:49:40.962Z,1001.32
2018-05-02T00:50:21.498Z,1001.29
2018-05-02T00:51:02.120Z,1001.28
2018-05-02T00:51:42.575Z,1001.34
2018-05-02T00:52:23.090Z,1001.31
2018-05-02T00:53:03.622Z,1001.31
2018-05-02T00:53:44.159Z,1001.31
2018-05-02T00:54:24.659Z,1001.28
2018-05-02T00:55:05.179Z,1001.25
2018-05-02T00:55:45.687Z,1001.24
2018-05-02T00:56:26.209Z,1001.28
2018-05-02T00:58:26.135Z,1001.2
2018-05-02T00:59:06.647Z,1001.25
2018-05-02T00:59:47.162Z,1001.23
2018-05-02T01:00:27.675Z,1001.27
2018-05-02T01:01:08.217Z,1001.23
2018-05-02T01:01:48.746Z,1001.27
2018-05-02T01:02:29.275Z,1001.29
2018-05-02T01:03:09.765Z,1001.22
2018-05-02T01:03:50.292Z,1001.25
2018-05-02T01:04:30.801Z,1001.25
2018-05-02T01:05:11.323Z,1001.26
2018-05-02T01:05:51.837Z,1001.24
2018-05-02T01:06:32.355Z,1001.28
2018-05-02T01:07:12.879Z,1001.25
2018-05-02T01:07:53.392Z,1001.23
2018-05-02T01:08:33.890Z,1001.23
2018-05-02T01:09:14.398Z,1001.21
2018-05-02T01:09:54.914Z,1001.26
2018-05-02T01:10:35.419Z,1001.23
2018-05-02T01:11:15.939Z,1001.2
2018-05-02T01:11:56.452Z,1001.24
2018-05-02T01:12:36.991Z,1001.2
2018-05-02T01:13:17.497Z,1001.22
2018-05-02T01:13:58.020Z,1001.22
2018-05-02T01:14:38.589Z,1001.19
2018-05-02T01:15:19.045Z,1001.2
2018-05-02T01:15:59.565Z,1001.2
2018-05-02T01:16:40.084Z,1001.21
2018-05-02T01:17:20.606Z,1001.24
2018-05-02T01:18:01.116Z,1001.27
2018-05-02T01:18:41.616Z,1001.21
2018-05-02T01:19:22.133Z,1001.21
2018-05-02T01:20:02.633Z,1001.22
2018-05-02T01:20:43.135Z,1001.22
2018-05-02T01:21:23.668Z,1001.2
2018-05-02T01:22:04.245Z,1001.18
2018-05-02T01:22:44.758Z,1001.21
2018-05-02T01:23:25.284Z,1001.21
2018-05-02T01:24:05.811Z,1001.17
2018-05-02T01:24:46.340Z,1001.15
2018-05-02T01:25:26.859Z,1001.17
2018-05-02T01:26:07.375Z,1001.17
2018-05-02T01:26:47.898Z,1001.16
2018-05-02T01:27:28.418Z,1001.17
2018-05-02T01:28:08.939Z,1001.16
2018-05-02T01:28:49.458Z,1001.15
2018-05-02T01:29:29.963Z,1001.13
2018-05-02T01:30:10.493Z,1001.16
2018-05-02T01:30:51.005Z,1001.11
2018-05-02T01:31:31.518Z,1001.11
2018-05-02T01:32:12.032Z,1001.12
2018-05-02T01:32:52.544Z,1001.15
2018-05-02T01:33:33.056Z,1001.1
2018-05-02T01:34:13.578Z,1001.15
2018-05-02T01:34:54.099Z,1001.13
2018-05-02T01:35:34.622Z,1001.11
2018-05-02T01:36:15.135Z,1001.11
2018-05-02T01:36:55.647Z,1001.13
2018-05-02T01:37:36.162Z,1001.07
2018-05-02T01:38:16.679Z,1001.05
2018-05-02T01:38:57.195Z,1001.08
2018-05-02T01:39:37.713Z,1001.06
2018-05-02T01:40:18.223Z,1001.08
2018-05-02T01:40:58.738Z,1001.08
2018-05-02T01:41:39.244Z,1001.09
2018-05-02T01:42:19.766Z,1001.1
2018-05-02T01:43:00.374Z,1001.09
2018-05-02T01:43:40.895Z,1001.06
2018-05-02T01:44:21.420Z,1001.08
2018-05-02T01:45:01.957Z,1001.11
2018-05-02T01:45:42.448Z,1001.03
2018-05-02T01:46:22.964Z,1001.06
2018-05-02T01:47:03.465Z,1001.08
2018-05-02T01:47:43.983Z,1001.08
2018-05-02T01:48:24.488Z,1001.08
2018-05-02T01:49:05.022Z,1001.04
2018-05-02T01:49:45.546Z,1001.09
2018-05-02T01:50:26.089Z,1001.09
2018-05-02T01:51:06.604Z,1001.11
2018-05-02T01:51:47.113Z,1001.1
2018-05-02T01:52:27.633Z,1001.13
2018-05-02T01:53:08.153Z,1001.11
2018-05-02T01:53:48.681Z,1001.13
2018-05-02T01:54:29.187Z,1001.12
2018-05-02T01:55:09.709Z,1001.12
2018-05-02T01:55:50.223Z,1001.05
2018-05-02T01:56:30.750Z,1000.97
2018-05-02T01:57:11.265Z,1000.9
2018-05-02T01:57:51.779Z,1000.9
2018-05-02T01:58:32.302Z,1000.88
2018-05-02T01:59:12.827Z,1000.86
2018-05-02T01:59:53.330Z,1000.88
2018-05-02T02:00:33.852Z,1000.91
2018-05-02T02:01:14.364Z,1000.92
2018-05-02T02:01:54.882Z,1000.91
2018-05-02T02:02:35.398Z,1000.94
2018-05-02T02:05:03.390Z,1000.87
2018-05-02T02:05:43.891Z,1000.9
2018-05-02T02:06:24.407Z,1000.88
2018-05-02T02:07:04.922Z,1000.89
2018-05-02T02:07:45.443Z,1000.9
2018-05-02T02:08:25.958Z,1000.89
2018-05-02T02:09:06.484Z,1000.93
2018-05-02T02:09:46.993Z,1000.91
2018-05-02T02:10:27.506Z,1000.95
2018-05-02T02:11:08.023Z,1000.93
2018-05-02T02:11:48.536Z,1000.91
2018-05-02T02:12:29.098Z,1000.9
2018-05-02T02:13:09.605Z,1000.94
2018-05-02T02:13:50.131Z,1000.91
2018-05-02T02:14:30.639Z,1000.93
2018-05-02T02:15:11.155Z,1000.98
2018-05-02T02:15:51.674Z,1000.96
2018-05-02T02:16:32.186Z,1000.97
2018-05-02T02:17:12.709Z,1000.97
2018-05-02T02:17:53.231Z,1001
2018-05-02T02:18:33.752Z,1000.98
2018-05-02T02:19:14.265Z,1000.98
2018-05-02T02:19:54.860Z,1000.97
2018-05-02T02:20:35.299Z,1000.96
2018-05-02T02:21:15.814Z,1000.99
2018-05-02T02:21:56.337Z,1000.98
2018-05-02T02:22:36.861Z,1000.94
2018-05-02T02:23:17.374Z,1000.97
2018-05-02T02:23:57.886Z,1000.97
2018-05-02T02:24:38.401Z,1000.92
2018-05-02T02:25:18.926Z,1000.9
2018-05-02T02:25:59.444Z,1000.85
2018-05-02T02:26:39.974Z,1000.87
2018-05-02T02:27:20.481Z,1000.87
2018-05-02T02:28:00.985Z,1000.81
2018-05-02T02:28:41.494Z,1000.82
2018-05-02T02:29:22.005Z,1000.79
2018-05-02T02:30:02.526Z,1000.78
2018-05-02T02:30:43.031Z,1000.77
2018-05-02T02:31:23.554Z,1000.76
2018-05-02T02:32:04.070Z,1000.77
2018-05-02T02:32:44.611Z,1000.72
2018-05-02T02:33:25.134Z,1000.77
2018-05-02T02:34:05.702Z,1000.72
2018-05-02T02:34:46.166Z,1000.72
2018-05-02T02:35:26.695Z,1000.72
2018-05-02T02:36:07.181Z,1000.68
2018-05-02T02:36:47.694Z,1000.67
2018-05-02T02:37:28.202Z,1000.72
2018-05-02T02:38:08.723Z,1000.64
2018-05-02T02:38:49.246Z,1000.67
2018-05-02T02:39:29.774Z,1000.74
2018-05-02T02:40:10.273Z,1000.72
2018-05-02T02:40:50.817Z,1000.72
2018-05-02T02:41:31.322Z,1000.74
2018-05-02T02:42:11.835Z,1000.78
2018-05-02T02:42:52.353Z,1000.75
2018-05-02T02:43:32.855Z,1000.74
2018-05-02T02:44:13.418Z,1000.74
2018-05-02T02:44:53.927Z,1000.73
2018-05-02T02:45:34.446Z,1000.73
2018-05-02T02:46:14.955Z,1000.69
2018-05-02T02:46:55.451Z,1000.73
2018-05-02T02:47:35.972Z,1000.7
2018-05-02T02:48:16.488Z,1000.71
2018-05-02T02:48:57.002Z,1000.7
2018-05-02T02:49:37.494Z,1000.71
2018-05-02T02:50:18.009Z,1000.62
2018-05-02T02:50:58.508Z,1000.67
2018-05-02T02:51:39.037Z,1000.71
2018-05-02T02:52:19.558Z,1000.71
2018-05-02T02:53:00.073Z,1000.69
2018-05-02T02:53:40.574Z,1000.67
2018-05-02T02:54:21.088Z,1000.74
2018-05-02T02:55:01.606Z,1000.75
2018-05-02T02:55:42.115Z,1000.75
2018-05-02T02:56:22.622Z,1000.72
2018-05-02T02:57:03.139Z,1000.8
2018-05-02T02:57:43.654Z,1000.78
2018-05-02T02:58:24.154Z,1000.72
2018-05-02T02:59:04.672Z,1000.77
2018-05-02T02:59:45.177Z,1000.75
2018-05-02T03:00:25.703Z,1000.77
2018-05-02T03:01:06.209Z,1000.77
2018-05-02T03:01:46.723Z,1000.84
2018-05-02T03:02:27.237Z,1000.83
2018-05-02T03:03:07.757Z,1000.8
2018-05-02T03:03:48.269Z,1000.8
2018-05-02T03:04:28.829Z,1000.79
2018-05-02T03:05:09.333Z,1000.77
2018-05-02T03:05:49.855Z,1000.78
2018-05-02T03:06:30.492Z,1000.79
2018-05-02T03:07:11.019Z,1000.81
2018-05-02T03:07:51.532Z,1000.83
2018-05-02T03:08:32.037Z,1000.79
2018-05-02T03:09:12.561Z,1000.81
2018-05-02T03:09:53.099Z,1000.77
2018-05-02T03:10:33.616Z,1000.81
2018-05-02T03:11:14.153Z,1000.83
2018-05-02T03:11:54.671Z,1000.86
2018-05-02T03:12:35.185Z,1000.86
2018-05-02T03:13:15.701Z,1000.84
2018-05-02T03:13:56.215Z,1000.86
2018-05-02T03:14:36.729Z,1000.83
2018-05-02T03:15:17.240Z,1000.86
2018-05-02T03:15:57.743Z,1000.8
2018-05-02T03:16:38.286Z,1000.84
2018-05-02T03:17:18.797Z,1000.81
2018-05-02T03:17:59.319Z,1000.81
2018-05-02T03:18:39.833Z,1000.82
2018-05-02T03:19:20.351Z,1000.79
2018-05-02T03:20:00.866Z,1000.79
2018-05-02T03:20:41.380Z,1000.79
2018-05-02T03:21:21.895Z,1000.77
2018-05-02T03:22:02.411Z,1000.79
2018-05-02T03:22:42.919Z,1000.74
2018-05-02T03:23:23.440Z,1000.74
2018-05-02T03:24:03.968Z,1000.75
2018-05-02T03:24:44.492Z,1000.71
2018-05-02T03:25:25.007Z,1000.71
2018-05-02T03:26:05.517Z,1000.74
2018-05-02T03:26:46.031Z,1000.76
2018-05-02T03:27:26.645Z,1000.72
2018-05-02T03:28:07.145Z,1000.73
2018-05-02T03:28:47.655Z,1000.71
2018-05-02T03:29:28.167Z,1000.74
2018-05-02T03:30:08.696Z,1000.72
2018-05-02T03:30:49.212Z,1000.74
2018-05-02T03:31:29.725Z,1000.72
2018-05-02T03:32:10.237Z,1000.78
2018-05-02T03:32:50.743Z,1000.7
2018-05-02T03:33:31.273Z,1000.75
2018-05-02T03:34:11.788Z,1000.72
2018-05-02T03:34:52.321Z,1000.69
2018-05-02T03:35:32.837Z,1000.69
2018-05-02T03:36:13.348Z,1000.72
2018-05-02T03:36:53.874Z,1000.7
2018-05-02T03:37:34.458Z,1000.68
2018-05-02T03:38:14.961Z,1000.66
2018-05-02T03:38:55.494Z,1000.62
2018-05-02T03:39:36.000Z,1000.66
2018-05-02T03:40:16.519Z,1000.66
2018-05-02T03:40:57.031Z,1000.64
2018-05-02T03:41:37.542Z,1000.67
2018-05-02T03:42:18.042Z,1000.66
2018-05-02T03:42:58.555Z,1000.66
2018-05-02T03:43:39.066Z,1000.71
2018-05-02T03:44:19.575Z,1000.68
2018-05-02T03:45:00.093Z,1000.67
2018-05-02T03:45:40.618Z,1000.7
2018-05-02T03:46:21.148Z,1000.65
2018-05-02T03:47:01.671Z,1000.67
2018-05-02T03:47:42.182Z,1000.65
2018-05-02T03:48:22.700Z,1000.61
2018-05-02T03:49:03.224Z,1000.65
2018-05-02T03:49:43.742Z,1000.63
2018-05-02T03:50:24.244Z,1000.62
2018-05-02T03:51:04.762Z,1000.59
2018-05-02T03:51:45.280Z,1000.61
2018-05-02T03:52:25.819Z,1000.58
2018-05-02T03:53:06.357Z,1000.55
2018-05-02T03:53:46.849Z,1000.58
2018-05-02T03:54:27.375Z,1000.58
2018-05-02T03:55:07.896Z,1000.6
2018-05-02T03:55:48.411Z,1000.61
2018-05-02T03:56:28.942Z,1000.6
2018-05-02T03:57:09.512Z,1000.64
2018-05-02T03:57:50.060Z,1000.61
2018-05-02T03:58:30.554Z,1000.61
2018-05-02T03:59:11.062Z,1000.62
2018-05-02T03:59:51.583Z,1000.62
2018-05-02T04:00:32.102Z,1000.62
2018-05-02T04:01:12.617Z,1000.61
2018-05-02T04:01:53.145Z,1000.63
2018-05-02T04:02:33.630Z,1000.65
2018-05-02T04:03:14.157Z,1000.62
2018-05-02T04:03:54.679Z,1000.6
2018-05-02T04:04:35.189Z,1000.56
2018-05-02T04:05:15.703Z,1000.62
2018-05-02T04:05:56.213Z,1000.57
2018-05-02T04:06:36.737Z,1000.59
2018-05-02T04:07:17.249Z,1000.6
2018-05-02T04:07:57.746Z,1000.59
2018-05-02T04:08:38.352Z,1000.58
2018-05-02T04:09:18.788Z,1000.63
2018-05-02T04:09:59.303Z,1000.59
2018-05-02T04:10:39.830Z,1000.57
2018-05-02T04:11:20.349Z,1000.57
2018-05-02T04:12:00.854Z,1000.57
2018-05-02T04:12:41.371Z,1000.55
2018-05-02T04:13:21.900Z,1000.54
2018-05-02T04:14:02.437Z,1000.53
2018-05-02T04:14:42.932Z,1000.53
2018-05-02T04:15:23.454Z,1000.5
2018-05-02T04:16:03.960Z,1000.48
2018-05-02T04:16:44.491Z,1000.51
2018-05-02T04:17:25.011Z,1000.48
2018-05-02T04:18:05.510Z,1000.49
2018-05-02T04:18:46.057Z,1000.49
2018-05-02T04:19:26.535Z,1000.47
2018-05-02T04:20:07.050Z,1000.5
2018-05-02T04:20:47.554Z,1000.53
2018-05-02T04:21:28.070Z,1000.53
2018-05-02T04:22:08.580Z,1000.55
2018-05-02T04:22:49.104Z,1000.59
2018-05-02T04:23:29.608Z,1000.52
2018-05-02T04:24:10.115Z,1000.6
2018-05-02T04:24:50.622Z,1000.62
2018-05-02T04:25:31.160Z,1000.55
2018-05-02T04:26:11.883Z,1000.6
2018-05-02T04:26:52.305Z,1000.59
2018-05-02T04:27:32.804Z,1000.6
2018-05-02T04:28:13.358Z,1000.56
2018-05-02T04:28:53.845Z,1000.6
2018-05-02T04:29:34.362Z,1000.56
2018-05-02T04:30:14.972Z,1000.55
2018-05-02T04:30:55.519Z,1000.58
2018-05-02T04:31:36.045Z,1000.57
2018-05-02T04:32:16.568Z,1000.59
2018-05-02T04:32:57.186Z,1000.6
2018-05-02T04:33:42.961Z,1000.59
2018-05-02T04:34:23.486Z,1000.63
2018-05-02T04:35:03.988Z,1000.66
2018-05-02T04:35:44.504Z,1000.65
2018-05-02T04:36:25.020Z,1000.67
2018-05-02T04:37:05.544Z,1000.7
2018-05-02T04:37:46.064Z,1000.65
2018-05-02T04:38:26.589Z,1000.63
2018-05-02T04:39:07.139Z,1000.65
2018-05-02T04:39:47.657Z,1000.62
2018-05-02T04:40:28.182Z,1000.64
2018-05-02T04:41:08.764Z,1000.66
2018-05-02T04:41:49.193Z,1000.65
2018-05-02T04:42:29.724Z,1000.68
2018-05-02T04:43:10.237Z,1000.7
2018-05-02T04:43:50.781Z,1000.73
2018-05-02T04:44:31.299Z,1000.74
2018-05-02T04:45:11.832Z,1000.77
2018-05-02T04:45:52.341Z,1000.78
2018-05-02T04:46:32.913Z,1000.76
2018-05-02T04:47:13.373Z,1000.73
2018-05-02T04:47:53.896Z,1000.78
2018-05-02T04:48:34.419Z,1000.81
2018-05-02T04:49:15.093Z,1000.84
2018-05-02T04:49:55.605Z,1000.86
2018-05-02T04:50:36.136Z,1000.86
2018-05-02T04:51:16.648Z,1000.92
2018-05-02T04:51:57.163Z,1000.91
2018-05-02T04:52:37.748Z,1000.89
2018-05-02T04:53:18.203Z,1000.83
2018-05-02T04:53:58.729Z,1000.88
2018-05-02T04:54:39.249Z,1000.91
2018-05-02T04:55:19.828Z,1000.86
2018-05-02T04:56:00.282Z,1000.87
2018-05-02T04:56:40.796Z,1000.81
2018-05-02T04:57:21.311Z,1000.83
2018-05-02T04:58:01.828Z,1000.82
2018-05-02T04:58:42.347Z,1000.77
2018-05-02T04:59:22.881Z,1000.76
2018-05-02T05:00:03.383Z,1000.78
2018-05-02T05:00:43.912Z,1000.8
2018-05-02T05:01:24.439Z,1000.81
2018-05-02T05:02:04.957Z,1000.8
2018-05-02T05:02:45.477Z,1000.75
2018-05-02T05:03:26.010Z,1000.78
2018-05-02T05:04:06.529Z,1000.75
2018-05-02T05:04:47.044Z,1000.78
2018-05-02T05:05:27.559Z,1000.76
2018-05-02T05:06:08.078Z,1000.77
2018-05-02T05:06:48.597Z,1000.79
2018-05-02T05:07:29.110Z,1000.76
2018-05-02T05:08:09.613Z,1000.83
2018-05-02T05:08:50.128Z,1000.79
2018-05-02T05:09:30.670Z,1000.84
2018-05-02T05:10:11.173Z,1000.81
2018-05-02T05:10:51.692Z,1000.75
2018-05-02T05:11:32.217Z,1000.82
2018-05-02T05:12:12.796Z,1000.82
2018-05-02T05:12:53.264Z,1000.76
2018-05-02T05:13:33.801Z,1000.81
2018-05-02T05:14:14.332Z,1000.82
2018-05-02T05:14:54.859Z,1000.85
2018-05-02T05:15:35.382Z,1000.84
2018-05-02T05:16:15.919Z,1000.89
2018-05-02T05:16:56.435Z,1000.86
2018-05-02T05:17:36.954Z,1000.88
2018-05-02T05:18:17.489Z,1000.88
2018-05-02T05:18:58.035Z,1000.86
2018-05-02T05:19:38.547Z,1000.9
2018-05-02T05:20:19.062Z,1000.89
2018-05-02T05:20:59.585Z,1000.88
2018-05-02T05:21:40.119Z,1000.87
2018-05-02T05:22:20.672Z,1000.89
2018-05-02T05:23:01.222Z,1000.86
2018-05-02T05:23:41.820Z,1000.9
2018-05-02T05:24:22.379Z,1000.92
2018-05-02T05:25:02.897Z,1000.89
2018-05-02T05:25:43.419Z,1000.94
2018-05-02T05:26:23.920Z,1000.93
2018-05-02T05:27:04.466Z,1000.96
2018-05-02T05:27:44.987Z,1000.96
2018-05-02T05:28:25.501Z,1000.93
2018-05-02T05:29:06.013Z,1000.97
2018-05-02T05:29:46.534Z,1000.96
2018-05-02T05:30:27.052Z,1001
2018-05-02T05:31:07.585Z,1000.98
2018-05-02T05:31:48.129Z,1000.97
2018-05-02T05:32:28.644Z,1000.92
2018-05-02T05:33:09.177Z,1000.94
2018-05-02T05:33:49.701Z,1000.99
2018-05-02T05:34:30.219Z,1001.02
2018-05-02T05:35:10.764Z,1000.98
2018-05-02T05:35:51.265Z,1000.98
2018-05-02T05:36:31.775Z,1000.96
2018-05-02T05:37:12.345Z,1001.03
2018-05-02T05:37:52.863Z,1000.97
2018-05-02T05:38:33.390Z,1000.99
2018-05-02T05:39:13.907Z,1000.99
2018-05-02T05:39:54.426Z,1001.03
2018-05-02T05:40:34.958Z,1001.1
2018-05-02T05:41:15.531Z,1001.07
2018-05-02T05:41:56.028Z,1001.07
2018-05-02T05:42:36.543Z,1001.04
2018-05-02T05:43:17.066Z,1001.05
2018-05-02T05:43:57.612Z,1001.04
2018-05-02T05:44:38.137Z,1001.03
2018-05-02T05:45:18.661Z,1000.99
2018-05-02T05:45:59.168Z,1000.98
2018-05-02T05:46:39.686Z,1001.06
2018-05-02T05:47:20.198Z,1001.04
2018-05-02T05:48:00.708Z,1001.07
2018-05-02T05:48:41.232Z,1001.07
2018-05-02T05:49:21.756Z,1001.13
2018-05-02T05:50:02.270Z,1001.13
2018-05-02T05:50:42.783Z,1001.15
2018-05-02T05:51:23.300Z,1001.13
2018-05-02T05:52:03.824Z,1001.18
2018-05-02T05:52:44.346Z,1001.16
2018-05-02T05:53:24.967Z,1001.14
2018-05-02T05:54:05.592Z,1001.1
2018-05-02T05:54:45.994Z,1001.1
2018-05-02T05:55:26.515Z,1001.09
2018-05-02T05:56:07.060Z,1001.04
2018-05-02T05:56:47.577Z,1001.07
2018-05-02T05:57:28.084Z,1001.07
2018-05-02T05:58:08.596Z,1001.05
2018-05-02T05:58:49.125Z,1001.06
2018-05-02T05:59:29.633Z,1001.03
2018-05-02T06:00:10.137Z,1000.96
2018-05-02T06:00:50.750Z,1000.99
2018-05-02T06:01:31.222Z,1001.01
2018-05-02T06:02:11.757Z,1000.99
2018-05-02T06:02:52.276Z,1000.99
2018-05-02T06:03:32.798Z,1000.99
2018-05-02T06:04:13.405Z,1001.03
2018-05-02T06:04:53.926Z,1001.04
2018-05-02T06:05:34.450Z,1001.03
2018-05-02T06:06:15.067Z,1001.08
2018-05-02T06:06:55.523Z,1001.08
2018-05-02T06:07:36.875Z,1001.1
2018-05-02T06:08:17.414Z,1001.14
2018-05-02T06:08:57.945Z,1001.16
2018-05-02T06:09:38.523Z,1001.15
2018-05-02T06:10:18.978Z,1001.13
2018-05-02T06:10:59.498Z,1001.09
2018-05-02T06:11:40.651Z,1001.08
2018-05-02T06:12:21.175Z,1001.07
2018-05-02T06:13:01.714Z,1001.09
2018-05-02T06:13:42.215Z,1001.08
2018-05-02T06:14:22.748Z,1001.11
2018-05-02T06:15:03.255Z,1001.14
2018-05-02T06:15:43.832Z,1001.1
2018-05-02T06:16:24.373Z,1001.16
2018-05-02T06:17:04.890Z,1001.22
2018-05-02T06:17:45.386Z,1001.15
2018-05-02T06:18:25.885Z,1001.22
2018-05-02T06:19:06.397Z,1001.18
2018-05-02T06:19:46.937Z,1001.21
2018-05-02T06:20:27.499Z,1001.18
2018-05-02T06:21:08.039Z,1001.14
2018-05-02T06:21:48.552Z,1001.17
2018-05-02T06:22:29.060Z,1001.16
2018-05-02T06:23:09.597Z,1001.17
2018-05-02T06:23:50.129Z,1001.23
2018-05-02T06:24:30.643Z,1001.17
2018-05-02T06:25:11.163Z,1001.17
2018-05-02T06:25:51.694Z,1001.17
2018-05-02T06:26:32.196Z,1001.17
2018-05-02T06:27:12.874Z,1001.2
2018-05-02T06:27:53.400Z,1001.15
2018-05-02T06:28:33.993Z,1001.16
2018-05-02T06:29:14.531Z,1001.2
2018-05-02T06:29:55.037Z,1001.15
2018-05-02T06:30:35.575Z,1001.15
2018-05-02T06:33:07.016Z,1001.25
2018-05-02T06:33:47.537Z,1001.18
2018-05-02T06:34:28.051Z,1001.21
2018-05-02T06:35:08.567Z,1001.2
2018-05-02T06:35:49.091Z,1001.16
2018-05-02T06:36:29.629Z,1001.16
2018-05-02T06:37:10.162Z,1001.14
2018-05-02T06:37:50.788Z,1001.13
2018-05-02T06:38:31.223Z,1001.15
2018-05-02T06:39:11.749Z,1001.1
2018-05-02T06:39:52.276Z,1001.11
2018-05-02T06:40:32.806Z,1001.13
2018-05-02T06:41:13.321Z,1001.09
2018-05-02T06:41:53.853Z,1001.1
2018-05-02T06:42:34.366Z,1001.14
2018-05-02T06:43:14.957Z,1001.12
2018-05-02T06:43:55.471Z,1001.11
2018-05-02T06:44:35.986Z,1001.08
2018-05-02T06:45:16.540Z,1001.04
2018-05-02T06:45:57.060Z,1001.1
2018-05-02T06:46:37.554Z,1001.12
2018-05-02T06:47:18.071Z,1001.04
2018-05-02T06:47:58.604Z,1001.03
2018-05-02T06:48:39.115Z,1001.02
2018-05-02T06:49:19.665Z,1000.98
2018-05-02T06:50:00.169Z,1000.97
2018-05-02T06:50:40.685Z,1000.92
2018-05-02T06:51:21.209Z,1000.97
2018-05-02T06:52:01.702Z,1000.98
2018-05-02T06:52:42.218Z,1000.95
2018-05-02T06:53:22.740Z,1000.92
2018-05-02T06:54:03.260Z,1000.92
2018-05-02T06:54:43.812Z,1000.91
2018-05-02T06:55:24.287Z,1000.94
2018-05-02T06:56:04.828Z,1000.98
2018-05-02T06:56:45.318Z,1000.97
2018-05-02T06:57:25.848Z,1000.99
2018-05-02T06:58:06.423Z,1001
2018-05-02T06:58:46.934Z,1000.93
2018-05-02T06:59:27.446Z,1000.92
2018-05-02T07:00:08.004Z,1000.94
2018-05-02T07:00:48.571Z,1000.94
2018-05-02T07:01:29.045Z,1000.93
2018-05-02T07:02:09.562Z,1000.88
2018-05-02T07:02:50.082Z,1000.93
2018-05-02T07:03:30.597Z,1000.86
2018-05-02T07:04:11.160Z,1000.79
2018-05-02T07:04:51.672Z,1000.87
2018-05-02T07:05:32.194Z,1000.83
2018-05-02T07:06:12.802Z,1000.8
2018-05-02T07:06:53.319Z,1000.77
2018-05-02T07:07:33.822Z,1000.84
2018-05-02T07:08:14.341Z,1000.8
2018-05-02T07:08:54.856Z,1000.73
2018-05-02T07:09:35.378Z,1000.78
2018-05-02T07:10:15.899Z,1000.76
2018-05-02T07:10:56.406Z,1000.73
2018-05-02T07:11:36.962Z,1000.73
2018-05-02T07:12:17.481Z,1000.71
2018-05-02T07:12:58.000Z,1000.7
2018-05-02T07:13:38.571Z,1000.67
2018-05-02T07:14:19.042Z,1000.67
2018-05-02T07:14:59.552Z,1000.68
2018-05-02T07:15:40.123Z,1000.65
2018-05-02T07:16:20.646Z,1000.6
2018-05-02T07:17:01.173Z,1000.59
2018-05-02T07:17:41.688Z,1000.65
2018-05-02T07:18:22.187Z,1000.65
2018-05-02T07:19:02.709Z,1000.65
2018-05-02T07:19:43.227Z,1000.63
2018-05-02T07:20:23.766Z,1000.66
2018-05-02T07:21:04.295Z,1000.63
2018-05-02T07:21:44.813Z,1000.59
2018-05-02T07:22:25.370Z,1000.59
2018-05-02T07:23:05.877Z,1000.58
2018-05-02T07:23:46.404Z,1000.64
2018-05-02T07:24:26.914Z,1000.57
2018-05-02T07:25:07.436Z,1000.57
2018-05-02T07:25:47.981Z,1000.63
2018-05-02T07:26:28.475Z,1000.63
2018-05-02T07:27:08.999Z,1000.67
2018-05-02T07:27:49.503Z,1000.64
2018-05-02T07:28:30.020Z,1000.59
2018-05-02T07:29:10.541Z,1000.57
2018-05-02T07:29:51.047Z,1000.58
2018-05-02T07:30:31.568Z,1000.58
2018-05-02T07:31:12.098Z,1000.59
2018-05-02T07:31:52.633Z,1000.48
2018-05-02T07:32:33.222Z,1000.51
2018-05-02T07:33:13.645Z,1000.43
2018-05-02T07:33:54.253Z,1000.41
2018-05-02T07:34:34.814Z,1000.44
2018-05-02T07:35:15.313Z,1000.45
2018-05-02T07:35:55.828Z,1000.48
2018-05-02T07:36:36.346Z,1000.44
2018-05-02T07:37:17.658Z,1000.47
2018-05-02T07:37:58.184Z,1000.48
2018-05-02T07:38:38.696Z,1000.5
2018-05-02T07:39:19.253Z,1000.53
2018-05-02T07:39:59.764Z,1000.52
2018-05-02T07:40:40.289Z,1000.5
2018-05-02T07:41:20.807Z,1000.58
2018-05-02T07:42:01.436Z,1000.56
2018-05-02T07:42:41.860Z,1000.56
2018-05-02T07:43:22.362Z,1000.56
2018-05-02T07:44:02.999Z,1000.48
2018-05-02T07:44:43.520Z,1000.51
2018-05-02T07:45:24.053Z,1000.54
2018-05-02T07:46:04.550Z,1000.49
2018-05-02T07:46:45.091Z,1000.54
2018-05-02T07:47:25.607Z,1000.47
2018-05-02T07:48:06.125Z,1000.57
2018-05-02T07:48:48.254Z,1000.5
2018-05-02T07:49:28.794Z,1000.47
2018-05-02T07:50:09.328Z,1000.44
2018-05-02T07:50:49.843Z,1000.54
2018-05-02T07:51:30.464Z,1000.43
2018-05-02T07:52:10.982Z,1000.47
2018-05-02T07:52:51.557Z,1000.43
2018-05-02T07:53:32.196Z,1000.4
2018-05-02T07:54:12.703Z,1000.42
2018-05-02T07:54:53.212Z,1000.41
2018-05-02T07:55:33.838Z,1000.42
2018-05-02T07:56:14.345Z,1000.4
2018-05-02T07:56:54.839Z,1000.41
2018-05-02T07:57:35.344Z,1000.36
2018-05-02T07:58:15.866Z,1000.37
2018-05-02T07:58:56.391Z,1000.41
2018-05-02T07:59:36.923Z,1000.41
2018-05-02T08:00:17.455Z,1000.44
2018-05-02T08:00:57.963Z,1000.39
2018-05-02T08:01:38.490Z,1000.38
2018-05-02T08:02:19.057Z,1000.37
2018-05-02T08:02:59.626Z,1000.37
2018-05-02T08:03:40.168Z,1000.43
2018-05-02T08:04:20.684Z,1000.39
2018-05-02T08:05:01.212Z,1000.39
2018-05-02T08:05:41.746Z,1000.38
2018-05-02T08:06:22.254Z,1000.37
2018-05-02T08:07:02.775Z,1000.4
2018-05-02T08:09:22.919Z,1000.47
2018-05-02T08:10:03.428Z,1000.38
2018-05-02T08:10:43.942Z,1000.38
2018-05-02T08:11:24.463Z,1000.38
2018-05-02T08:12:04.982Z,1000.39
2018-05-02T08:12:45.505Z,1000.35
2018-05-02T08:13:26.019Z,1000.32
2018-05-02T08:14:06.557Z,1000.33
2018-05-02T08:14:47.070Z,1000.38
2018-05-02T08:15:27.594Z,1000.4
2018-05-02T08:16:08.110Z,1000.35
2018-05-02T08:16:48.632Z,1000.35
2018-05-02T08:17:29.206Z,1000.37
2018-05-02T08:18:09.732Z,1000.38
2018-05-02T08:18:50.233Z,1000.37